sensor_id;sensor_type;location;lat;lon;timestamp;pressure;altitude;pressure_sealevel;temperature;humidity
19736;BME280;32064;49.310;8.646;2023-11-18T00:02:08;101435.47;;;12.41;72.71
19736;BME280;32064;49.310;8.646;2023-11-18T00:04:34;101430.38;;;12.38;74.46
19736;BME280;32064;49.310;8.646;2023-11-18T00:06:59;101422.84;;;12.32;72.83
19736;BME280;32064;49.310;8.646;2023-11-18T00:09:25;101432.25;;;12.36;72.61
19736;BME280;32064;49.310;8.646;2023-11-18T00:11:50;101435.94;;;12.33;72.94
19736;BME280;32064;49.310;8.646;2023-11-18T00:14:16;101426.78;;;12.39;72.04
19736;BME280;32064;49.310;8.646;2023-11-18T00:16:43;101438.09;;;12.41;71.82
19736;BME280;32064;49.310;8.646;2023-11-18T00:19:08;101430.00;;;12.44;72.21
19736;BME280;32064;49.310;8.646;2023-11-18T00:21:34;101438.88;;;12.43;72.54
19736;BME280;32064;49.310;8.646;2023-11-18T00:24:01;101446.69;;;12.45;73.68
19736;BME280;32064;49.310;8.646;2023-11-18T00:26:27;101442.34;;;12.44;72.83
19736;BME280;32064;49.310;8.646;2023-11-18T00:28:52;101445.84;;;12.44;73.37
19736;BME280;32064;49.310;8.646;2023-11-18T00:31:18;101446.03;;;12.41;73.52
19736;BME280;32064;49.310;8.646;2023-11-18T00:33:43;101443.47;;;12.40;72.68
19736;BME280;32064;49.310;8.646;2023-11-18T00:36:08;101439.16;;;12.39;72.93
19736;BME280;32064;49.310;8.646;2023-11-18T00:38:34;101442.81;;;12.36;73.06
19736;BME280;32064;49.310;8.646;2023-11-18T00:40:59;101438.31;;;12.38;73.40
19736;BME280;32064;49.310;8.646;2023-11-18T00:43:25;101430.38;;;12.38;73.05
19736;BME280;32064;49.310;8.646;2023-11-18T00:45:50;101433.88;;;12.39;73.74
19736;BME280;32064;49.310;8.646;2023-11-18T00:48:16;101433.69;;;12.42;72.79
19736;BME280;32064;49.310;8.646;2023-11-18T00:50:42;101433.88;;;12.39;73.75
19736;BME280;32064;49.310;8.646;2023-11-18T00:53:07;101439.97;;;12.39;73.62
19736;BME280;32064;49.310;8.646;2023-11-18T00:55:32;101432.19;;;12.38;73.46
19736;BME280;32064;49.310;8.646;2023-11-18T00:57:58;101432.25;;;12.36;72.71
19736;BME280;32064;49.310;8.646;2023-11-18T01:00:24;101439.34;;;12.35;73.51
19736;BME280;32064;49.310;8.646;2023-11-18T01:02:53;101440.81;;;12.40;73.87
19736;BME280;32064;49.310;8.646;2023-11-18T01:05:20;101440.81;;;12.40;72.57
19736;BME280;32064;49.310;8.646;2023-11-18T01:07:45;101440.94;;;12.38;73.86
19736;BME280;32064;49.310;8.646;2023-11-18T01:10:11;101449.63;;;12.40;73.11
19736;BME280;32064;49.310;8.646;2023-11-18T01:12:38;101450.28;;;12.44;73.66
19736;BME280;32064;49.310;8.646;2023-11-18T01:15:04;101453.00;;;12.42;73.33
19736;BME280;32064;49.310;8.646;2023-11-18T01:17:30;101451.38;;;12.40;73.08
19736;BME280;32064;49.310;8.646;2023-11-18T01:19:57;101459.69;;;12.33;73.06
19736;BME280;32064;49.310;8.646;2023-11-18T01:22:22;101455.34;;;12.32;73.57
19736;BME280;32064;49.310;8.646;2023-11-18T01:24:47;101456.97;;;12.35;74.08
19736;BME280;32064;49.310;8.646;2023-11-18T01:27:13;101448.00;;;12.38;73.33
19736;BME280;32064;49.310;8.646;2023-11-18T01:29:39;101449.88;;;12.35;73.15
19736;BME280;32064;49.310;8.646;2023-11-18T01:32:05;101451.50;;;12.38;73.56
19736;BME280;32064;49.310;8.646;2023-11-18T01:34:38;101452.44;;;12.37;73.88
19736;BME280;32064;49.310;8.646;2023-11-18T01:37:08;101453.09;;;12.41;73.87
19736;BME280;32064;49.310;8.646;2023-11-18T01:39:37;101451.75;;;12.33;73.70
19736;BME280;32064;49.310;8.646;2023-11-18T01:42:03;101447.50;;;12.31;73.74
19736;BME280;32064;49.310;8.646;2023-11-18T01:44:30;101448.47;;;12.30;73.79
19736;BME280;32064;49.310;8.646;2023-11-18T01:46:57;101449.22;;;12.32;73.51
19736;BME280;32064;49.310;8.646;2023-11-18T01:49:23;101446.59;;;12.32;72.49
19736;BME280;32064;49.310;8.646;2023-11-18T01:51:49;101453.56;;;12.33;73.37
19736;BME280;32064;49.310;8.646;2023-11-18T01:54:16;101447.50;;;12.31;73.44
19736;BME280;32064;49.310;8.646;2023-11-18T01:56:47;101455.03;;;12.23;72.57
19736;BME280;32064;49.310;8.646;2023-11-18T01:59:13;101451.66;;;12.21;73.76
19736;BME280;32064;49.310;8.646;2023-11-18T02:01:46;101459.00;;;12.16;73.29
19736;BME280;32064;49.310;8.646;2023-11-18T02:04:14;101451.84;;;12.18;73.85
19736;BME280;32064;49.310;8.646;2023-11-18T02:06:39;101452.97;;;12.13;71.91
19736;BME280;32064;49.310;8.646;2023-11-18T02:09:05;101452.19;;;12.11;72.79
19736;BME280;32064;49.310;8.646;2023-11-18T02:11:37;101451.34;;;12.11;71.85
19736;BME280;32064;49.310;8.646;2023-11-18T02:14:13;101444.75;;;12.04;72.15
19736;BME280;32064;49.310;8.646;2023-11-18T02:16:40;101456.16;;;12.04;71.93
19736;BME280;32064;49.310;8.646;2023-11-18T02:19:19;101451.31;;;11.97;72.76
19736;BME280;32064;49.310;8.646;2023-11-18T02:21:46;101461.88;;;11.97;70.98
19736;BME280;32064;49.310;8.646;2023-11-18T02:24:27;101469.31;;;11.90;71.59
19736;BME280;32064;49.310;8.646;2023-11-18T02:26:57;101468.94;;;11.96;72.02
19736;BME280;32064;49.310;8.646;2023-11-18T02:29:22;101474.31;;;11.95;73.14
19736;BME280;32064;49.310;8.646;2023-11-18T02:31:52;101466.03;;;11.85;73.23
19736;BME280;32064;49.310;8.646;2023-11-18T02:34:23;101462.16;;;11.76;71.50
19736;BME280;32064;49.310;8.646;2023-11-18T02:36:52;101463.00;;;11.77;72.82
19736;BME280;32064;49.310;8.646;2023-11-18T02:39:27;101471.84;;;11.76;71.24
19736;BME280;32064;49.310;8.646;2023-11-18T02:41:55;101465.16;;;11.70;72.80
19736;BME280;32064;49.310;8.646;2023-11-18T02:44:23;101472.03;;;11.73;73.49
19736;BME280;32064;49.310;8.646;2023-11-18T02:46:51;101473.91;;;11.71;72.40
19736;BME280;32064;49.310;8.646;2023-11-18T02:49:16;101466.44;;;11.63;74.01
19736;BME280;32064;49.310;8.646;2023-11-18T02:51:43;101464.06;;;11.58;73.15
19736;BME280;32064;49.310;8.646;2023-11-18T02:54:09;101460.91;;;11.67;73.14
19736;BME280;32064;49.310;8.646;2023-11-18T02:56:38;101465.03;;;11.72;73.03
19736;BME280;32064;49.310;8.646;2023-11-18T02:59:04;101463.09;;;11.75;72.98
19736;BME280;32064;49.310;8.646;2023-11-18T03:01:32;101455.03;;;11.78;73.61
19736;BME280;32064;49.310;8.646;2023-11-18T03:04:01;101459.69;;;11.73;73.63
19736;BME280;32064;49.310;8.646;2023-11-18T03:06:27;101458.50;;;11.79;72.45
19736;BME280;32064;49.310;8.646;2023-11-18T03:08:53;101451.53;;;11.78;73.78
19736;BME280;32064;49.310;8.646;2023-11-18T03:11:19;101445.38;;;11.77;74.05
19736;BME280;32064;49.310;8.646;2023-11-18T03:13:45;101448.03;;;11.77;73.38
19736;BME280;32064;49.310;8.646;2023-11-18T03:16:14;101448.78;;;11.79;73.12
19736;BME280;32064;49.310;8.646;2023-11-18T03:18:40;101446.25;;;11.78;73.24
19736;BME280;32064;49.310;8.646;2023-11-18T03:21:12;101441.72;;;11.80;73.04
19736;BME280;32064;49.310;8.646;2023-11-18T03:23:41;101449.38;;;11.84;71.82
19736;BME280;32064;49.310;8.646;2023-11-18T03:26:08;101453.47;;;11.90;72.56
19736;BME280;32064;49.310;8.646;2023-11-18T03:28:33;101445.38;;;11.93;72.46
19736;BME280;32064;49.310;8.646;2023-11-18T03:31:04;101447.00;;;11.96;73.34
19736;BME280;32064;49.310;8.646;2023-11-18T03:33:30;101459.06;;;12.00;73.84
19736;BME280;32064;49.310;8.646;2023-11-18T03:35:55;101445.69;;;12.03;72.44
19736;BME280;32064;49.310;8.646;2023-11-18T03:38:21;101452.56;;;12.05;72.13
19736;BME280;32064;49.310;8.646;2023-11-18T03:40:47;101450.03;;;12.04;73.74
19736;BME280;32064;49.310;8.646;2023-11-18T03:43:12;101453.50;;;12.04;73.27
19736;BME280;32064;49.310;8.646;2023-11-18T03:45:41;101453.44;;;12.06;73.52
19736;BME280;32064;49.310;8.646;2023-11-18T03:48:07;101445.53;;;12.06;74.56
19736;BME280;32064;49.310;8.646;2023-11-18T03:50:35;101454.94;;;12.10;73.86
19736;BME280;32064;49.310;8.646;2023-11-18T03:53:01;101447.88;;;12.10;72.95
19736;BME280;32064;49.310;8.646;2023-11-18T03:55:28;101456.44;;;12.14;73.08
19736;BME280;32064;49.310;8.646;2023-11-18T03:57:54;101458.06;;;12.17;72.90
19736;BME280;32064;49.310;8.646;2023-11-18T04:00:20;101453.63;;;12.17;73.98
19736;BME280;32064;49.310;8.646;2023-11-18T04:02:46;101459.06;;;12.14;73.22
19736;BME280;32064;49.310;8.646;2023-11-18T04:05:12;101460.69;;;12.17;74.62
19736;BME280;32064;49.310;8.646;2023-11-18T04:07:38;101464.00;;;12.20;73.75
19736;BME280;32064;49.310;8.646;2023-11-18T04:10:08;101467.38;;;12.22;73.71
19736;BME280;32064;49.310;8.646;2023-11-18T04:12:36;101466.16;;;12.13;74.57
19736;BME280;32064;49.310;8.646;2023-11-18T04:15:01;101462.75;;;12.11;73.33
19736;BME280;32064;49.310;8.646;2023-11-18T04:17:29;101454.00;;;12.11;75.36
19736;BME280;32064;49.310;8.646;2023-11-18T04:19:55;101451.16;;;12.14;74.49
19736;BME280;32064;49.310;8.646;2023-11-18T04:22:21;101453.06;;;12.12;73.86
19736;BME280;32064;49.310;8.646;2023-11-18T04:24:47;101449.28;;;12.16;74.25
19736;BME280;32064;49.310;8.646;2023-11-18T04:27:12;101441.97;;;12.21;74.40
19736;BME280;32064;49.310;8.646;2023-11-18T04:29:38;101442.63;;;12.25;73.49
19736;BME280;32064;49.310;8.646;2023-11-18T04:32:05;101442.72;;;12.23;73.35
19736;BME280;32064;49.310;8.646;2023-11-18T04:34:35;101442.16;;;12.18;72.83
19736;BME280;32064;49.310;8.646;2023-11-18T04:37:00;101437.97;;;12.14;74.27
19736;BME280;32064;49.310;8.646;2023-11-18T04:39:26;101437.91;;;12.16;73.13
19736;BME280;32064;49.310;8.646;2023-11-18T04:41:51;101438.56;;;12.19;73.85
19736;BME280;32064;49.310;8.646;2023-11-18T04:44:17;101439.41;;;12.20;74.54
19736;BME280;32064;49.310;8.646;2023-11-18T04:46:43;101452.13;;;12.13;73.69
19736;BME280;32064;49.310;8.646;2023-11-18T04:49:09;101440.97;;;12.08;74.02
19736;BME280;32064;49.310;8.646;2023-11-18T04:51:35;101450.81;;;12.06;73.67
19736;BME280;32064;49.310;8.646;2023-11-18T04:54:00;101442.59;;;12.10;74.13
19736;BME280;32064;49.310;8.646;2023-11-18T04:56:28;101444.19;;;12.13;73.93
19736;BME280;32064;49.310;8.646;2023-11-18T04:58:54;101440.81;;;12.11;72.99
19736;BME280;32064;49.310;8.646;2023-11-18T05:01:19;101441.75;;;12.10;73.07
19736;BME280;32064;49.310;8.646;2023-11-18T05:03:44;101439.19;;;12.08;73.83
19736;BME280;32064;49.310;8.646;2023-11-18T05:06:10;101444.56;;;12.07;73.21
19736;BME280;32064;49.310;8.646;2023-11-18T05:08:35;101447.59;;;12.01;74.26
19736;BME280;32064;49.310;8.646;2023-11-18T05:11:01;101445.13;;;11.98;73.78
19736;BME280;32064;49.310;8.646;2023-11-18T05:13:27;101454.13;;;11.94;73.36
19736;BME280;32064;49.310;8.646;2023-11-18T05:15:52;101446.16;;;11.95;74.54
19736;BME280;32064;49.310;8.646;2023-11-18T05:18:19;101441.06;;;11.92;74.27
19736;BME280;32064;49.310;8.646;2023-11-18T05:20:45;101448.03;;;11.93;74.12
19736;BME280;32064;49.310;8.646;2023-11-18T05:23:11;101444.94;;;11.85;74.18
19736;BME280;32064;49.310;8.646;2023-11-18T05:25:40;101446.59;;;11.87;73.69
19736;BME280;32064;49.310;8.646;2023-11-18T05:28:06;101450.22;;;11.85;73.44
19736;BME280;32064;49.310;8.646;2023-11-18T05:30:35;101448.53;;;11.84;72.98
19736;BME280;32064;49.310;8.646;2023-11-18T05:33:04;101446.16;;;11.79;73.56
19736;BME280;32064;49.310;8.646;2023-11-18T05:35:34;101453.81;;;11.84;73.72
19736;BME280;32064;49.310;8.646;2023-11-18T05:38:00;101450.19;;;11.86;73.32
19736;BME280;32064;49.310;8.646;2023-11-18T05:40:28;101462.22;;;11.90;74.69
19736;BME280;32064;49.310;8.646;2023-11-18T05:42:54;101443.78;;;11.90;74.26
19736;BME280;32064;49.310;8.646;2023-11-18T05:45:20;101444.63;;;11.91;73.63
19736;BME280;32064;49.310;8.646;2023-11-18T05:48:02;101440.03;;;11.95;74.73
19736;BME280;32064;49.310;8.646;2023-11-18T05:50:28;101430.22;;;11.97;74.06
19736;BME280;32064;49.310;8.646;2023-11-18T05:52:54;101426.56;;;11.99;74.44
19736;BME280;32064;49.310;8.646;2023-11-18T05:55:20;101420.50;;;11.97;73.25
19736;BME280;32064;49.310;8.646;2023-11-18T05:57:45;101409.13;;;11.97;74.72
19736;BME280;32064;49.310;8.646;2023-11-18T06:00:14;101411.19;;;11.91;74.18
19736;BME280;32064;49.310;8.646;2023-11-18T06:02:41;101412.13;;;11.90;73.71
19736;BME280;32064;49.310;8.646;2023-11-18T06:05:07;101420.81;;;11.93;73.97
19736;BME280;32064;49.310;8.646;2023-11-18T06:07:33;101425.91;;;11.80;73.20
19736;BME280;32064;49.310;8.646;2023-11-18T06:09:59;101426.00;;;11.78;74.43
19736;BME280;32064;49.310;8.646;2023-11-18T06:12:24;101425.91;;;11.80;73.46
19736;BME280;32064;49.310;8.646;2023-11-18T06:14:49;101434.41;;;11.85;73.89
19736;BME280;32064;49.310;8.646;2023-11-18T06:17:16;101435.28;;;11.85;73.54
19736;BME280;32064;49.310;8.646;2023-11-18T06:19:44;101426.44;;;11.86;75.05
19736;BME280;32064;49.310;8.646;2023-11-18T06:22:09;101435.69;;;11.94;73.79
19736;BME280;32064;49.310;8.646;2023-11-18T06:24:36;101449.03;;;11.90;73.54
19736;BME280;32064;49.310;8.646;2023-11-18T06:27:01;101437.56;;;11.91;74.05
19736;BME280;32064;49.310;8.646;2023-11-18T06:29:26;101443.59;;;11.94;73.85
19736;BME280;32064;49.310;8.646;2023-11-18T06:31:54;101448.22;;;11.90;74.73
19736;BME280;32064;49.310;8.646;2023-11-18T06:34:20;101448.28;;;11.88;74.20
19736;BME280;32064;49.310;8.646;2023-11-18T06:36:46;101445.75;;;11.87;73.52
19736;BME280;32064;49.310;8.646;2023-11-18T06:39:11;101440.28;;;11.90;74.78
19736;BME280;32064;49.310;8.646;2023-11-18T06:41:38;101439.53;;;11.88;74.75
19736;BME280;32064;49.310;8.646;2023-11-18T06:44:13;101431.19;;;11.96;74.46
19736;BME280;32064;49.310;8.646;2023-11-18T06:46:43;101432.13;;;11.95;72.95
19736;BME280;32064;49.310;8.646;2023-11-18T06:49:09;101424.09;;;11.96;73.76
19736;BME280;32064;49.310;8.646;2023-11-18T06:51:36;101431.00;;;11.99;72.95
19736;BME280;32064;49.310;8.646;2023-11-18T06:54:06;101431.66;;;12.02;72.74
19736;BME280;32064;49.310;8.646;2023-11-18T06:56:35;101435.13;;;12.03;72.53
19736;BME280;32064;49.310;8.646;2023-11-18T06:59:02;101437.50;;;12.07;72.38
19736;BME280;32064;49.310;8.646;2023-11-18T07:01:29;101440.31;;;12.04;74.13
19736;BME280;32064;49.310;8.646;2023-11-18T07:03:56;101444.75;;;12.04;73.75
19736;BME280;32064;49.310;8.646;2023-11-18T07:06:21;101459.22;;;11.97;74.07
19736;BME280;32064;49.310;8.646;2023-11-18T07:08:51;101450.94;;;12.03;73.99
19736;BME280;32064;49.310;8.646;2023-11-18T07:11:17;101452.63;;;11.89;74.69
19736;BME280;32064;49.310;8.646;2023-11-18T07:13:47;101455.69;;;11.98;74.59
19736;BME280;32064;49.310;8.646;2023-11-18T07:16:13;101464.00;;;12.06;74.63
19736;BME280;32064;49.310;8.646;2023-11-18T07:18:39;101457.47;;;12.11;73.54
19736;BME280;32064;49.310;8.646;2023-11-18T07:21:05;101450.97;;;12.17;73.08
19736;BME280;32064;49.310;8.646;2023-11-18T07:23:34;101449.03;;;12.21;74.55
19736;BME280;32064;49.310;8.646;2023-11-18T07:26:00;101461.75;;;12.28;72.74
19736;BME280;32064;49.310;8.646;2023-11-18T07:28:26;101457.16;;;12.32;73.75
19736;BME280;32064;49.310;8.646;2023-11-18T07:30:52;101452.78;;;12.31;74.24
19736;BME280;32064;49.310;8.646;2023-11-18T07:33:19;101437.84;;;12.31;73.72
19736;BME280;32064;49.310;8.646;2023-11-18T07:35:46;101443.47;;;12.25;72.86
19736;BME280;32064;49.310;8.646;2023-11-18T07:38:15;101441.97;;;12.21;74.23
19736;BME280;32064;49.310;8.646;2023-11-18T07:40:41;101447.31;;;12.20;74.10
19736;BME280;32064;49.310;8.646;2023-11-18T07:43:10;101445.38;;;12.23;72.87
19736;BME280;32064;49.310;8.646;2023-11-18T07:45:36;101441.00;;;12.22;73.17
19736;BME280;32064;49.310;8.646;2023-11-18T07:48:06;101443.47;;;12.25;72.73
19736;BME280;32064;49.310;8.646;2023-11-18T07:50:35;101448.72;;;12.25;73.69
19736;BME280;32064;49.310;8.646;2023-11-18T07:53:01;101451.03;;;12.31;74.06
19736;BME280;32064;49.310;8.646;2023-11-18T07:55:27;101453.94;;;12.41;74.48
19736;BME280;32064;49.310;8.646;2023-11-18T07:57:53;101445.00;;;12.44;73.22
19736;BME280;32064;49.310;8.646;2023-11-18T08:00:19;101451.38;;;12.40;73.32
19736;BME280;32064;49.310;8.646;2023-11-18T08:02:45;101456.00;;;12.36;73.88
19736;BME280;32064;49.310;8.646;2023-11-18T08:05:10;101458.56;;;12.23;73.84
19736;BME280;32064;49.310;8.646;2023-11-18T08:07:41;101460.25;;;12.39;72.76
19736;BME280;32064;49.310;8.646;2023-11-18T08:10:07;101463.19;;;12.48;72.86
19736;BME280;32064;49.310;8.646;2023-11-18T08:12:38;101468.19;;;12.53;72.29
19736;BME280;32064;49.310;8.646;2023-11-18T08:15:04;101461.78;;;12.57;72.59
19736;BME280;32064;49.310;8.646;2023-11-18T08:17:31;101454.59;;;12.59;72.55
19736;BME280;32064;49.310;8.646;2023-11-18T08:19:56;101461.41;;;12.63;73.71
19736;BME280;32064;49.310;8.646;2023-11-18T08:22:22;101466.97;;;12.58;73.58
19736;BME280;32064;49.310;8.646;2023-11-18T08:24:49;101464.03;;;12.49;73.02
19736;BME280;32064;49.310;8.646;2023-11-18T08:27:15;101460.19;;;12.54;73.31
19736;BME280;32064;49.310;8.646;2023-11-18T08:29:40;101461.59;;;12.60;73.77
19736;BME280;32064;49.310;8.646;2023-11-18T08:32:06;101466.38;;;12.53;73.16
19736;BME280;32064;49.310;8.646;2023-11-18T08:34:35;101466.97;;;12.58;73.26
19736;BME280;32064;49.310;8.646;2023-11-18T08:37:01;101462.72;;;12.56;72.90
19736;BME280;32064;49.310;8.646;2023-11-18T08:39:28;101461.22;;;12.52;72.81
19736;BME280;32064;49.310;8.646;2023-11-18T08:41:54;101461.09;;;12.53;73.76
19736;BME280;32064;49.310;8.646;2023-11-18T08:44:19;101453.94;;;12.55;72.70
19736;BME280;32064;49.310;8.646;2023-11-18T08:46:45;101445.47;;;12.65;73.82
19736;BME280;32064;49.310;8.646;2023-11-18T08:49:10;101445.84;;;12.73;72.02
19736;BME280;32064;49.310;8.646;2023-11-18T08:51:37;101437.53;;;12.79;73.76
19736;BME280;32064;49.310;8.646;2023-11-18T08:54:04;101441.31;;;12.75;71.80
19736;BME280;32064;49.310;8.646;2023-11-18T08:56:50;101434.34;;;12.74;72.84
19736;BME280;32064;49.310;8.646;2023-11-18T08:59:20;101441.59;;;12.70;72.00
19736;BME280;32064;49.310;8.646;2023-11-18T09:01:56;101443.38;;;12.70;73.53
19736;BME280;32064;49.310;8.646;2023-11-18T09:04:22;101434.44;;;12.72;71.72
19736;BME280;32064;49.310;8.646;2023-11-18T09:06:49;101437.34;;;12.68;72.04
19736;BME280;32064;49.310;8.646;2023-11-18T09:09:16;101440.56;;;12.73;73.39
19736;BME280;32064;49.310;8.646;2023-11-18T09:11:42;101441.31;;;12.75;72.78
19736;BME280;32064;49.310;8.646;2023-11-18T09:14:08;101442.91;;;12.77;72.89
19736;BME280;32064;49.310;8.646;2023-11-18T09:16:34;101426.13;;;12.78;72.76
19736;BME280;32064;49.310;8.646;2023-11-18T09:19:04;101437.91;;;12.87;72.78
19736;BME280;32064;49.310;8.646;2023-11-18T09:21:31;101439.88;;;12.98;72.85
19736;BME280;32064;49.310;8.646;2023-11-18T09:24:00;101434.13;;;12.91;72.58
19736;BME280;32064;49.310;8.646;2023-11-18T09:26:30;101432.34;;;12.92;72.59
19736;BME280;32064;49.310;8.646;2023-11-18T09:28:55;101426.75;;;12.96;72.57
19736;BME280;32064;49.310;8.646;2023-11-18T09:31:22;101440.88;;;13.10;71.98
19736;BME280;32064;49.310;8.646;2023-11-18T09:33:48;101434.94;;;13.06;71.23
19736;BME280;32064;49.310;8.646;2023-11-18T09:36:17;101434.75;;;13.09;71.74
19736;BME280;32064;49.310;8.646;2023-11-18T09:38:43;101437.75;;;13.17;71.50
19736;BME280;32064;49.310;8.646;2023-11-18T09:41:12;101436.69;;;13.20;71.45
19736;BME280;32064;49.310;8.646;2023-11-18T09:43:38;101438.59;;;13.18;71.98
19736;BME280;32064;49.310;8.646;2023-11-18T09:46:22;101425.81;;;13.24;71.62
19736;BME280;32064;49.310;8.646;2023-11-18T09:48:50;101428.75;;;13.34;71.68
19736;BME280;32064;49.310;8.646;2023-11-18T09:51:26;101429.19;;;13.41;71.54
19736;BME280;32064;49.310;8.646;2023-11-18T09:54:00;101437.44;;;13.36;71.22
19736;BME280;32064;49.310;8.646;2023-11-18T09:59:18;101426.78;;;13.23;70.85
19736;BME280;32064;49.310;8.646;2023-11-18T10:01:53;101427.38;;;13.14;70.99
19736;BME280;32064;49.310;8.646;2023-11-18T10:04:23;101439.81;;;13.27;70.36
19736;BME280;32064;49.310;8.646;2023-11-18T10:06:53;101438.09;;;13.40;70.62
19736;BME280;32064;49.310;8.646;2023-11-18T10:09:19;101433.44;;;13.43;69.78
19736;BME280;32064;49.310;8.646;2023-11-18T10:11:54;101430.94;;;13.55;70.51
19736;BME280;32064;49.310;8.646;2023-11-18T10:14:26;101432.53;;;13.57;70.48
19736;BME280;32064;49.310;8.646;2023-11-18T10:16:52;101432.25;;;13.62;69.82
19736;BME280;32064;49.310;8.646;2023-11-18T10:19:19;101435.72;;;13.62;69.62
19736;BME280;32064;49.310;8.646;2023-11-18T10:21:45;101426.84;;;13.63;69.25
19736;BME280;32064;49.310;8.646;2023-11-18T10:24:14;101425.69;;;13.67;69.40
19736;BME280;32064;49.310;8.646;2023-11-18T10:26:43;101415.41;;;13.63;68.86
19736;BME280;32064;49.310;8.646;2023-11-18T10:29:11;101422.50;;;13.62;70.27
19736;BME280;32064;49.310;8.646;2023-11-18T10:31:38;101429.63;;;13.75;69.64
19736;BME280;32064;49.310;8.646;2023-11-18T10:34:13;101425.09;;;13.77;69.17
19736;BME280;32064;49.310;8.646;2023-11-18T10:36:58;101428.88;;;13.73;68.85
19736;BME280;32064;49.310;8.646;2023-11-18T10:39:31;101424.03;;;13.79;68.83
19736;BME280;32064;49.310;8.646;2023-11-18T10:42:00;101423.50;;;13.87;68.44
19736;BME280;32064;49.310;8.646;2023-11-18T10:44:25;101427.00;;;13.87;68.35
19736;BME280;32064;49.310;8.646;2023-11-18T10:46:52;101421.59;;;13.89;68.29
19736;BME280;32064;49.310;8.646;2023-11-18T10:49:24;101413.38;;;13.93;68.16
19736;BME280;32064;49.310;8.646;2023-11-18T10:51:52;101417.28;;;13.88;67.36
19736;BME280;32064;49.310;8.646;2023-11-18T10:54:18;101416.31;;;13.89;67.83
19736;BME280;32064;49.310;8.646;2023-11-18T10:56:49;101415.78;;;13.84;67.93
19736;BME280;32064;49.310;8.646;2023-11-18T10:59:15;101413.56;;;13.90;68.51
19736;BME280;32064;49.310;8.646;2023-11-18T11:01:42;101418.19;;;13.87;67.84
19736;BME280;32064;49.310;8.646;2023-11-18T11:04:12;101412.63;;;13.91;67.66
19736;BME280;32064;49.310;8.646;2023-11-18T11:06:41;101411.13;;;13.87;67.63
19736;BME280;32064;49.310;8.646;2023-11-18T11:09:10;101405.50;;;13.92;67.35
19736;BME280;32064;49.310;8.646;2023-11-18T11:11:48;101397.78;;;13.76;67.51
19736;BME280;32064;49.310;8.646;2023-11-18T11:14:15;101403.53;;;13.96;66.83
19736;BME280;32064;49.310;8.646;2023-11-18T11:16:54;101400.22;;;13.92;67.08
19736;BME280;32064;49.310;8.646;2023-11-18T11:19:38;101384.44;;;13.78;66.99
19736;BME280;32064;49.310;8.646;2023-11-18T11:22:10;101375.03;;;13.86;66.31
19736;BME280;32064;49.310;8.646;2023-11-18T11:27:43;101367.19;;;13.72;67.02
19736;BME280;32064;49.310;8.646;2023-11-18T11:30:22;101356.84;;;13.82;67.00
19736;BME280;32064;49.310;8.646;2023-11-18T11:32:51;101363.06;;;13.81;66.56
19736;BME280;32064;49.310;8.646;2023-11-18T11:35:23;101359.47;;;13.69;67.15
19736;BME280;32064;49.310;8.646;2023-11-18T11:37:50;101352.06;;;13.74;66.82
19736;BME280;32064;49.310;8.646;2023-11-18T11:40:21;101333.78;;;13.71;66.81
19736;BME280;32064;49.310;8.646;2023-11-18T11:42:50;101323.94;;;13.73;66.15
19736;BME280;32064;49.310;8.646;2023-11-18T11:45:25;101328.38;;;13.73;66.30
19736;BME280;32064;49.310;8.646;2023-11-18T11:47:57;101318.53;;;13.75;66.55
19736;BME280;32064;49.310;8.646;2023-11-18T11:50:48;101318.97;;;13.68;66.37
19736;BME280;32064;49.310;8.646;2023-11-18T11:53:21;101317.38;;;13.66;65.87
19736;BME280;32064;49.310;8.646;2023-11-18T11:55:49;101313.16;;;13.76;66.22
19736;BME280;32064;49.310;8.646;2023-11-18T11:58:26;101307.00;;;13.76;65.51
19736;BME280;32064;49.310;8.646;2023-11-18T12:00:53;101290.28;;;13.75;66.10
19736;BME280;32064;49.310;8.646;2023-11-18T12:03:21;101292.59;;;13.67;65.89
19736;BME280;32064;49.310;8.646;2023-11-18T12:05:54;101287.75;;;13.74;66.50
19736;BME280;32064;49.310;8.646;2023-11-18T12:08:22;101290.06;;;13.78;66.57
19736;BME280;32064;49.310;8.646;2023-11-18T12:10:54;101291.56;;;13.69;65.99
19736;BME280;32064;49.310;8.646;2023-11-18T12:13:21;101288.91;;;13.69;65.78
19736;BME280;32064;49.310;8.646;2023-11-18T12:15:54;101281.50;;;13.75;66.19
19736;BME280;32064;49.310;8.646;2023-11-18T12:18:28;101276.75;;;13.80;65.99
19736;BME280;32064;49.310;8.646;2023-11-18T12:20:57;101281.75;;;13.84;65.05
19736;BME280;32064;49.310;8.646;2023-11-18T12:23:27;101276.22;;;13.87;65.47
19736;BME280;32064;49.310;8.646;2023-11-18T12:25:53;101276.94;;;13.89;65.00
19736;BME280;32064;49.310;8.646;2023-11-18T12:28:32;101266.38;;;13.89;65.48
19736;BME280;32064;49.310;8.646;2023-11-18T12:31:10;101265.44;;;13.90;65.05
19736;BME280;32064;49.310;8.646;2023-11-18T12:34:00;101266.50;;;13.88;65.65
19736;BME280;32064;49.310;8.646;2023-11-18T12:41:55;101267.84;;;13.93;65.52
19736;BME280;32064;49.310;8.646;2023-11-18T12:44:36;101252.50;;;13.99;65.03
19736;BME280;32064;49.310;8.646;2023-11-18T12:47:05;101250.94;;;13.96;65.49
19736;BME280;32064;49.310;8.646;2023-11-18T12:49:43;101244.69;;;13.72;64.59
19736;BME280;32064;49.310;8.646;2023-11-18T12:52:13;101246.81;;;13.79;65.73
19736;BME280;32064;49.310;8.646;2023-11-18T12:54:41;101238.31;;;13.87;65.18
19736;BME280;32064;49.310;8.646;2023-11-18T12:57:09;101234.75;;;13.88;65.19
19736;BME280;32064;49.310;8.646;2023-11-18T12:59:36;101238.13;;;13.90;65.45
19736;BME280;32064;49.310;8.646;2023-11-18T13:02:07;101234.13;;;13.84;64.46
19736;BME280;32064;49.310;8.646;2023-11-18T13:04:33;101224.25;;;13.86;65.44
19736;BME280;32064;49.310;8.646;2023-11-18T13:07:05;101212.75;;;13.87;65.50